East Wenona, Illinois
Current Conditions -  °F | °C
As of 12:35 AM on Wednesday 28 Jan 2015 (Local Time) from KC75 Reporting Station
Overcast Overcast  
Wind Chill: -4°   Ceiling: 1700
Heat Index: -2°   Visibility: 10mi
Dew Point: -5°   Wind: 5mph
Humidity: 81%   Direction: 160°SSE
Pressure: 30.25"   Gusts: NA
Location:  41.0632°N, 89.0208°W
Report Text: KC75 280635Z AUTO 16004KT 10SM OVC017 M02/M04 A3025 RMK AO2 T10161045
Loading
Personal Weather Stations






























Interactive Weather Map New forecast layout! Learn more

10-Day Weather Forecast

Advertisements
Track Severe Weather on mobile